Time;durP1;ratioP1;P1;durP2;ratioP2;P2;SDS_P1;SDS_P2;PMS_P1;PMS_P2;Temp;Humidity;BMP_temperature;BMP_pressure;BME280_temperature;BME280_humidity;BME280_pressure;Samples;Min_cycle;Max_cycle;Signal;HPM_P1;HPM_P2
2021/12/09 00:00:20;;;;;;;;;;;20.60;99.90;;;;;;5107255;28;20007;-79
2021/12/09 00:02:47;;;;;;;;;;;20.60;99.90;;;;;;5075928;28;20283;-78
2021/12/09 00:05:15;;;;;;;;;;;20.60;99.90;;;;;;5076702;28;19940;-78
2021/12/09 00:07:43;;;;;;;;;;;20.60;99.90;;;;;;5076217;28;19948;-77
2021/12/09 00:10:12;;;;;;;;;;;20.60;99.90;;;;;;5074366;28;20007;-78
2021/12/09 00:12:39;;;;;;;;;;;20.50;99.90;;;;;;5074872;28;19970;-76
2021/12/09 00:18:07;;;;;;;;;;;20.40;99.90;;;;;;5065164;28;19980;-76
2021/12/09 00:20:33;;;;;;;;;;;20.50;99.90;;;;;;5076151;28;19921;-77
2021/12/09 00:23:00;;;;;;;;;;;20.70;99.90;;;;;;5075914;28;19912;-79
2021/12/09 00:25:27;;;;;;;;;;;20.80;99.90;;;;;;5075790;28;19944;-78
2021/12/09 00:27:54;;;;;;;;;;;21.00;99.90;;;;;;5074955;28;19912;-79
2021/12/09 00:30:21;;;;;;;;;;;21.10;99.90;;;;;;5073795;28;19966;-77
2021/12/09 00:32:48;;;;;;;;;;;21.10;99.90;;;;;;5074172;28;20306;-76
2021/12/09 00:35:16;;;;;;;;;;;21.20;99.90;;;;;;5074180;28;20309;-77
2021/12/09 00:38:00;;;;;;;;;;;21.20;99.90;;;;;;5073910;28;19920;-77
2021/12/09 00:40:27;;;;;;;;;;;21.30;99.90;;;;;;5073910;28;20303;-77
2021/12/09 00:42:53;;;;;;;;;;;21.40;99.90;;;;;;5074263;28;19916;-78
2021/12/09 00:45:21;;;;;;;;;;;21.40;99.90;;;;;;5074128;28;19913;-77
2021/12/09 00:47:48;;;;;;;;;;;21.40;99.90;;;;;;5073936;28;19962;-76
2021/12/09 00:50:15;;;;;;;;;;;21.40;99.90;;;;;;5074373;28;19913;-77
2021/12/09 00:52:42;;;;;;;;;;;21.40;99.90;;;;;;5073843;28;19981;-80
2021/12/09 00:55:09;;;;;;;;;;;21.20;99.90;;;;;;5074574;28;19919;-79
2021/12/09 00:57:38;;;;;;;;;;;21.10;99.90;;;;;;5073500;28;19927;-77
2021/12/09 01:00:06;;;;;;;;;;;21.20;99.90;;;;;;5074124;28;19939;-83
2021/12/09 01:02:33;;;;;;;;;;;21.20;99.90;;;;;;5073454;28;20398;-80
2021/12/09 01:04:59;;;;;;;;;;;21.10;99.90;;;;;;5073891;28;19999;-79
2021/12/09 01:07:26;;;;;;;;;;;21.00;99.90;;;;;;5073540;28;19923;-81
2021/12/09 01:09:53;;;;;;;;;;;20.90;99.90;;;;;;5073604;28;19925;-81
2021/12/09 01:12:19;;;;;;;;;;;21.00;99.90;;;;;;5073590;28;19920;-78
2021/12/09 01:14:46;;;;;;;;;;;21.00;99.90;;;;;;5074127;28;19939;-81
2021/12/09 01:17:13;;;;;;;;;;;21.00;99.90;;;;;;5073308;28;19920;-79
2021/12/09 01:19:40;;;;;;;;;;;20.90;99.90;;;;;;5073650;28;19917;-81
2021/12/09 01:22:07;;;;;;;;;;;20.90;99.90;;;;;;5073013;28;19913;-81
2021/12/09 01:24:34;;;;;;;;;;;20.90;99.90;;;;;;5073419;28;19917;-81
2021/12/09 01:27:01;;;;;;;;;;;20.70;99.90;;;;;;5073635;28;20027;-81
2021/12/09 01:29:40;;;;;;;;;;;20.70;99.90;;;;;;5073151;28;19982;-81
2021/12/09 01:32:10;;;;;;;;;;;20.70;99.90;;;;;;5070902;28;20011;-81
2021/12/09 01:34:37;;;;;;;;;;;20.70;99.90;;;;;;5073140;28;19974;-80
2021/12/09 01:37:07;;;;;;;;;;;20.90;99.90;;;;;;5073214;28;19928;-80
2021/12/09 01:39:34;;;;;;;;;;;21.00;99.90;;;;;;5072730;28;19916;-80
2021/12/09 01:42:01;;;;;;;;;;;21.10;99.90;;;;;;5073098;28;19912;-76
2021/12/09 01:44:28;;;;;;;;;;;21.10;99.90;;;;;;5072673;28;20268;-80
2021/12/09 01:46:56;;;;;;;;;;;21.20;99.90;;;;;;5073042;28;19916;-80
2021/12/09 01:49:22;;;;;;;;;;;21.30;99.90;;;;;;5072654;28;19927;-77
2021/12/09 01:51:49;;;;;;;;;;;21.30;99.90;;;;;;5073171;28;19916;-80
2021/12/09 01:54:16;;;;;;;;;;;21.40;99.90;;;;;;5072633;28;19925;-78
2021/12/09 01:56:43;;;;;;;;;;;21.50;99.90;;;;;;5072925;28;19912;-80
2021/12/09 01:59:10;;;;;;;;;;;21.70;99.90;;;;;;5072393;28;19956;-79
2021/12/09 02:01:37;;;;;;;;;;;21.90;99.90;;;;;;5072742;28;19920;-79
2021/12/09 02:04:05;;;;;;;;;;;22.00;99.90;;;;;;5072109;28;20280;-79
2021/12/09 02:06:33;;;;;;;;;;;22.10;99.90;;;;;;5062438;28;20355;-81
2021/12/09 02:08:59;;;;;;;;;;;22.10;99.90;;;;;;5071882;28;19927;-80
2021/12/09 02:11:26;;;;;;;;;;;22.10;99.90;;;;;;5072590;28;19947;-77
2021/12/09 02:13:56;;;;;;;;;;;22.30;99.90;;;;;;5072157;28;19912;-77
2021/12/09 02:16:23;;;;;;;;;;;22.30;99.90;;;;;;5072463;28;19912;-80
2021/12/09 02:18:50;;;;;;;;;;;22.30;99.90;;;;;;5072526;28;19952;-81
2021/12/09 02:21:18;;;;;;;;;;;22.30;99.90;;;;;;5071609;28;19923;-79
2021/12/09 02:23:49;;;;;;;;;;;22.20;99.90;;;;;;5072457;28;19909;-78
2021/12/09 02:26:17;;;;;;;;;;;22.10;99.90;;;;;;5071981;28;19952;-81
2021/12/09 02:28:44;;;;;;;;;;;22.10;99.90;;;;;;5072394;28;19909;-79
2021/12/09 02:31:11;;;;;;;;;;;22.10;99.90;;;;;;5071099;28;19924;-79
2021/12/09 02:33:38;;;;;;;;;;;22.00;99.90;;;;;;5062949;28;19909;-78
2021/12/09 02:36:05;;;;;;;;;;;22.10;99.90;;;;;;5070118;28;20359;-79
2021/12/09 02:38:32;;;;;;;;;;;22.10;99.90;;;;;;5072146;28;19916;-78
2021/12/09 02:40:58;;;;;;;;;;;22.10;99.90;;;;;;5071392;28;20295;-79
2021/12/09 02:43:27;;;;;;;;;;;22.30;99.90;;;;;;5072122;28;19915;-79
2021/12/09 02:45:55;;;;;;;;;;;22.40;99.90;;;;;;5070922;28;19980;-79
2021/12/09 02:48:23;;;;;;;;;;;22.30;99.90;;;;;;5072205;28;20716;-79
2021/12/09 02:50:50;;;;;;;;;;;22.20;99.90;;;;;;5071395;28;19915;-79
2021/12/09 02:53:18;;;;;;;;;;;22.30;99.90;;;;;;5071715;28;20318;-83
2021/12/09 02:55:44;;;;;;;;;;;22.30;99.90;;;;;;5071300;28;20433;-78
2021/12/09 02:58:12;;;;;;;;;;;22.40;99.90;;;;;;5071480;28;19968;-80
2021/12/09 03:01:07;;;;;;;;;;;22.30;99.90;;;;;;5071503;28;20391;-79
2021/12/09 03:03:35;;;;;;;;;;;22.40;99.90;;;;;;5062182;28;19923;-79
2021/12/09 03:06:02;;;;;;;;;;;22.40;99.90;;;;;;5070948;28;19920;-80
2021/12/09 03:08:36;;;;;;;;;;;22.40;99.90;;;;;;5071524;28;20382;-81
2021/12/09 03:11:07;;;;;;;;;;;22.60;99.90;;;;;;5071333;28;19917;-81
2021/12/09 03:13:33;;;;;;;;;;;22.60;99.90;;;;;;5071528;28;19920;-79
2021/12/09 03:16:01;;;;;;;;;;;22.60;99.90;;;;;;5070773;28;19916;-80
2021/12/09 03:18:27;;;;;;;;;;;22.60;99.90;;;;;;5071348;28;20015;-79
2021/12/09 03:20:54;;;;;;;;;;;22.50;99.90;;;;;;5071061;28;19913;-79
2021/12/09 03:23:22;;;;;;;;;;;22.50;99.90;;;;;;5071369;28;19951;-80
2021/12/09 03:25:49;;;;;;;;;;;22.60;99.90;;;;;;5070782;28;19916;-80
2021/12/09 03:28:16;;;;;;;;;;;22.60;99.90;;;;;;5070207;28;19959;-81
2021/12/09 03:30:43;;;;;;;;;;;22.50;99.90;;;;;;5070715;28;19919;-80
2021/12/09 03:33:09;;;;;;;;;;;22.40;99.90;;;;;;5071089;28;19951;-79
2021/12/09 03:35:36;;;;;;;;;;;22.40;99.90;;;;;;5071120;28;19919;-82
2021/12/09 03:38:03;;;;;;;;;;;22.30;99.90;;;;;;5070242;28;19925;-77
2021/12/09 03:40:30;;;;;;;;;;;22.30;99.90;;;;;;5071178;28;19912;-79
2021/12/09 03:42:57;;;;;;;;;;;22.30;99.90;;;;;;5070507;28;19995;-78
2021/12/09 03:45:23;;;;;;;;;;;22.40;99.90;;;;;;5070909;28;19912;-79
2021/12/09 03:47:50;;;;;;;;;;;22.50;99.90;;;;;;5070201;28;19913;-80
2021/12/09 03:50:17;;;;;;;;;;;22.70;99.90;;;;;;5071138;28;19916;-80
2021/12/09 03:52:44;;;;;;;;;;;22.90;99.90;;;;;;5070900;28;19921;-76
2021/12/09 03:55:11;;;;;;;;;;;22.80;99.90;;;;;;5071350;28;19990;-79
2021/12/09 03:57:38;;;;;;;;;;;22.70;99.90;;;;;;5070555;28;20374;-78
2021/12/09 04:00:06;;;;;;;;;;;22.70;99.90;;;;;;5070468;28;19913;-80
2021/12/09 04:02:33;;;;;;;;;;;22.60;99.90;;;;;;5070329;28;19926;-79
2021/12/09 04:04:59;;;;;;;;;;;22.50;99.90;;;;;;5070756;28;19912;-79
2021/12/09 04:07:26;;;;;;;;;;;22.40;99.90;;;;;;5070627;28;19916;-80
2021/12/09 04:09:53;;;;;;;;;;;22.30;99.90;;;;;;5070623;28;19924;-78
2021/12/09 04:12:20;;;;;;;;;;;22.30;99.90;;;;;;5070907;28;19966;-78
2021/12/09 04:14:46;;;;;;;;;;;22.30;99.90;;;;;;5070181;28;19912;-78
2021/12/09 04:17:13;;;;;;;;;;;22.20;99.90;;;;;;5070866;28;19924;-81
2021/12/09 04:19:46;;;;;;;;;;;22.30;99.90;;;;;;5070296;28;19927;-81
2021/12/09 04:22:14;;;;;;;;;;;22.40;99.90;;;;;;5071002;28;19912;-78
2021/12/09 04:24:41;;;;;;;;;;;22.40;99.90;;;;;;5070320;28;20437;-80
2021/12/09 04:27:08;;;;;;;;;;;22.50;99.90;;;;;;5070330;28;19958;-79
2021/12/09 04:29:35;;;;;;;;;;;22.60;99.90;;;;;;5067166;28;19912;-79
2021/12/09 04:32:01;;;;;;;;;;;22.50;99.90;;;;;;5070715;28;19912;-80
2021/12/09 04:34:28;;;;;;;;;;;22.50;99.90;;;;;;5070184;28;19925;-75
2021/12/09 04:36:56;;;;;;;;;;;22.50;99.90;;;;;;5070778;28;19962;-79
2021/12/09 04:39:22;;;;;;;;;;;22.50;99.90;;;;;;5070432;28;19917;-77
2021/12/09 04:41:50;;;;;;;;;;;22.50;99.90;;;;;;5070268;28;19912;-80
2021/12/09 04:44:17;;;;;;;;;;;22.30;99.90;;;;;;5070763;28;20448;-79
2021/12/09 04:46:44;;;;;;;;;;;22.30;99.90;;;;;;5074061;28;19916;-79
2021/12/09 04:49:11;;;;;;;;;;;22.20;99.90;;;;;;5074163;28;19920;-76
2021/12/09 04:51:38;;;;;;;;;;;22.20;99.90;;;;;;5073927;28;19916;-79
2021/12/09 04:54:05;;;;;;;;;;;22.30;99.90;;;;;;5073996;28;19920;-79
2021/12/09 04:56:33;;;;;;;;;;;22.40;99.90;;;;;;5073140;28;19920;-78
2021/12/09 04:59:00;;;;;;;;;;;22.30;99.90;;;;;;5074137;28;20363;-79
2021/12/09 05:01:27;;;;;;;;;;;22.20;99.90;;;;;;5073316;28;20417;-78
2021/12/09 05:03:53;;;;;;;;;;;22.00;99.90;;;;;;5074013;28;19955;-79
2021/12/09 05:06:20;;;;;;;;;;;22.00;99.90;;;;;;5073577;28;20074;-79
2021/12/09 05:08:48;;;;;;;;;;;21.80;99.90;;;;;;5072458;28;20534;-80
2021/12/09 05:13:55;;;;;;;;;;;21.60;99.90;;;;;;5071911;28;19995;-76
2021/12/09 05:16:22;;;;;;;;;;;21.50;99.90;;;;;;5069085;28;20502;-78
2021/12/09 05:18:50;;;;;;;;;;;21.50;99.90;;;;;;5071451;28;19974;-76
2021/12/09 05:21:17;;;;;;;;;;;21.40;99.90;;;;;;5069051;28;19924;-75
2021/12/09 05:23:44;;;;;;;;;;;21.50;99.90;;;;;;5071822;28;20313;-78
2021/12/09 05:26:10;;;;;;;;;;;21.40;99.90;;;;;;5069221;28;19913;-79
2021/12/09 05:28:37;;;;;;;;;;;21.40;99.90;;;;;;5060287;28;19917;-79
2021/12/09 05:33:51;;;;;;;;;;;21.30;99.90;;;;;;5053074;28;19927;-78
2021/12/09 05:36:18;;;;;;;;;;;21.30;99.90;;;;;;5068598;28;20268;-79
2021/12/09 05:38:45;;;;;;;;;;;21.30;99.90;;;;;;5070914;28;19946;-80
2021/12/09 05:41:12;;;;;;;;;;;21.30;99.90;;;;;;5069086;28;19921;-80
2021/12/09 05:43:38;;;;;;;;;;;21.30;99.90;;;;;;5071059;28;19912;-78
2021/12/09 05:46:05;;;;;;;;;;;21.30;99.90;;;;;;5069815;28;19920;-79
2021/12/09 05:48:32;;;;;;;;;;;21.30;99.90;;;;;;5069053;28;19944;-79
2021/12/09 05:50:59;;;;;;;;;;;21.20;99.90;;;;;;5068848;28;19913;-79
2021/12/09 05:53:26;;;;;;;;;;;21.10;99.90;;;;;;5066517;28;19923;-80
2021/12/09 05:55:52;;;;;;;;;;;21.00;99.90;;;;;;5067803;28;19919;-80
2021/12/09 05:58:20;;;;;;;;;;;20.90;99.90;;;;;;5046311;28;19963;-80
2021/12/09 06:00:48;;;;;;;;;;;20.90;99.90;;;;;;5052764;28;19917;-79
2021/12/09 06:03:14;;;;;;;;;;;21.00;99.90;;;;;;5054399;28;20003;-79
2021/12/09 06:05:41;;;;;;;;;;;20.80;99.90;;;;;;5052526;28;20012;-78
2021/12/09 06:08:08;;;;;;;;;;;20.50;99.90;;;;;;5066869;28;19920;-77
2021/12/09 06:10:36;;;;;;;;;;;20.10;99.90;;;;;;5070876;28;20676;-79
2021/12/09 06:13:03;;;;;;;;;;;20.00;99.90;;;;;;5070097;28;19958;-79
2021/12/09 06:15:30;;;;;;;;;;;19.90;99.90;;;;;;5070594;28;20359;-79
2021/12/09 06:17:56;;;;;;;;;;;19.90;99.90;;;;;;5070909;28;20016;-79
2021/12/09 06:20:24;;;;;;;;;;;19.80;99.90;;;;;;5059829;28;19912;-79
2021/12/09 06:22:54;;;;;;;;;;;19.60;99.90;;;;;;5069454;28;20361;-78
2021/12/09 06:25:21;;;;;;;;;;;19.50;99.90;;;;;;5070532;28;20462;-77
2021/12/09 06:27:54;;;;;;;;;;;19.40;99.90;;;;;;5069760;28;20294;-79
2021/12/09 06:30:21;;;;;;;;;;;19.50;99.90;;;;;;5069321;28;20738;-78
2021/12/09 06:32:48;;;;;;;;;;;19.50;99.90;;;;;;5070021;28;19959;-77
2021/12/09 06:35:15;;;;;;;;;;;19.50;99.90;;;;;;5069836;28;19951;-78
2021/12/09 06:37:44;;;;;;;;;;;19.40;99.90;;;;;;5070100;28;19969;-79
2021/12/09 06:40:13;;;;;;;;;;;19.30;99.90;;;;;;5069530;28;19974;-77
2021/12/09 06:42:40;;;;;;;;;;;19.30;99.90;;;;;;5069912;28;19916;-77
2021/12/09 06:45:08;;;;;;;;;;;19.30;99.90;;;;;;5069269;28;20363;-78
2021/12/09 06:47:35;;;;;;;;;;;19.30;99.90;;;;;;5070222;28;20359;-78
2021/12/09 06:50:01;;;;;;;;;;;19.30;99.90;;;;;;5069277;28;19966;-79
2021/12/09 06:52:28;;;;;;;;;;;19.20;99.90;;;;;;5069897;28;20290;-78
2021/12/09 06:54:55;;;;;;;;;;;19.20;99.90;;;;;;5069437;28;20742;-80
2021/12/09 06:57:21;;;;;;;;;;;19.10;99.90;;;;;;5069309;28;20291;-79
2021/12/09 06:59:48;;;;;;;;;;;19.10;99.90;;;;;;5068803;28;19974;-76
2021/12/09 07:02:14;;;;;;;;;;;19.20;99.90;;;;;;5069861;28;19912;-79
2021/12/09 07:04:41;;;;;;;;;;;19.30;99.90;;;;;;5069137;28;19999;-79
2021/12/09 07:07:08;;;;;;;;;;;19.30;99.90;;;;;;5069704;28;20282;-79
2021/12/09 07:09:36;;;;;;;;;;;19.40;99.90;;;;;;5068850;28;20400;-79
2021/12/09 07:12:11;;;;;;;;;;;19.30;99.90;;;;;;5069296;28;19917;-78
2021/12/09 07:14:39;;;;;;;;;;;19.40;99.90;;;;;;5070371;28;19956;-79
2021/12/09 07:17:16;;;;;;;;;;;19.40;99.90;;;;;;5067400;28;19955;-80
2021/12/09 07:19:42;;;;;;;;;;;19.50;99.90;;;;;;5068855;28;19923;-79
2021/12/09 07:22:09;;;;;;;;;;;19.50;99.90;;;;;;5069083;28;19926;-78
2021/12/09 07:24:36;;;;;;;;;;;19.40;99.90;;;;;;5069015;28;19917;-79
2021/12/09 07:27:03;;;;;;;;;;;19.30;99.90;;;;;;5069208;28;20283;-80
2021/12/09 07:29:31;;;;;;;;;;;19.20;99.90;;;;;;5069146;28;19960;-80
2021/12/09 07:31:58;;;;;;;;;;;19.10;99.90;;;;;;5067665;28;20007;-80
2021/12/09 07:34:24;;;;;;;;;;;19.00;99.90;;;;;;5069402;28;20007;-80
2021/12/09 07:36:51;;;;;;;;;;;19.10;99.90;;;;;;5068580;28;19932;-79
2021/12/09 07:39:18;;;;;;;;;;;19.10;99.90;;;;;;5069221;28;19912;-80
2021/12/09 07:41:45;;;;;;;;;;;19.10;99.90;;;;;;5068817;28;19972;-79
2021/12/09 07:44:13;;;;;;;;;;;19.10;99.90;;;;;;5069158;28;20328;-79
2021/12/09 07:46:42;;;;;;;;;;;19.10;99.90;;;;;;5068733;28;20095;-79
2021/12/09 07:49:09;;;;;;;;;;;19.10;99.90;;;;;;5068750;28;19966;-78
2021/12/09 07:51:36;;;;;;;;;;;19.20;99.90;;;;;;5066852;28;20573;-77
2021/12/09 07:54:02;;;;;;;;;;;19.20;99.90;;;;;;5069045;28;20371;-79
2021/12/09 07:56:29;;;;;;;;;;;19.20;99.90;;;;;;5068732;28;20026;-80
2021/12/09 07:58:56;;;;;;;;;;;19.30;99.90;;;;;;5069225;28;19924;-78
2021/12/09 08:01:23;;;;;;;;;;;19.20;99.90;;;;;;5068768;28;20628;-78
2021/12/09 08:03:49;;;;;;;;;;;19.20;99.90;;;;;;5068542;28;19934;-78
2021/12/09 08:06:16;;;;;;;;;;;19.10;99.90;;;;;;5069087;28;20279;-78
2021/12/09 08:08:43;;;;;;;;;;;19.00;99.90;;;;;;5070541;28;19916;-78
2021/12/09 08:11:10;;;;;;;;;;;18.90;99.90;;;;;;5070914;28;19913;-78
2021/12/09 08:13:37;;;;;;;;;;;18.90;99.90;;;;;;5070155;28;19916;-76
2021/12/09 08:16:03;;;;;;;;;;;18.80;99.90;;;;;;5070674;28;19934;-76
2021/12/09 08:18:43;;;;;;;;;;;18.90;99.90;;;;;;5060633;28;19920;-77
2021/12/09 08:21:09;;;;;;;;;;;18.90;99.90;;;;;;5073859;28;19917;-77
2021/12/09 08:23:36;;;;;;;;;;;18.90;99.90;;;;;;5074393;28;19927;-79
2021/12/09 08:26:02;;;;;;;;;;;18.80;99.90;;;;;;5074712;28;20386;-78
2021/12/09 08:28:29;;;;;;;;;;;18.80;99.90;;;;;;5074289;28;19920;-76
2021/12/09 08:30:56;;;;;;;;;;;18.80;99.90;;;;;;5074307;28;19913;-76
2021/12/09 08:33:32;;;;;;;;;;;18.80;99.90;;;;;;5074728;28;20018;-76
2021/12/09 08:35:59;;;;;;;;;;;18.70;99.90;;;;;;5107908;28;19919;-76
2021/12/09 08:38:26;;;;;;;;;;;18.70;99.90;;;;;;5074513;28;20383;-77
2021/12/09 08:40:53;;;;;;;;;;;18.70;99.90;;;;;;5075001;28;19999;-77
2021/12/09 08:43:20;;;;;;;;;;;18.70;99.90;;;;;;5074096;28;20272;-75
2021/12/09 08:45:47;;;;;;;;;;;18.70;99.90;;;;;;5074528;28;19916;-76
2021/12/09 08:48:14;;;;;;;;;;;18.60;99.90;;;;;;5074024;28;19913;-73
2021/12/09 08:50:43;;;;;;;;;;;18.60;99.90;;;;;;5074610;28;19920;-75
2021/12/09 08:53:11;;;;;;;;;;;18.60;99.90;;;;;;5072782;28;19917;-77
2021/12/09 08:55:38;;;;;;;;;;;18.70;99.90;;;;;;5073289;28;19916;-77
2021/12/09 08:58:05;;;;;;;;;;;18.60;99.90;;;;;;5073904;28;19921;-78
2021/12/09 09:00:35;;;;;;;;;;;18.60;99.90;;;;;;5074385;28;19924;-76
2021/12/09 09:03:02;;;;;;;;;;;18.60;99.90;;;;;;5074574;28;19916;-75
2021/12/09 09:05:29;;;;;;;;;;;18.60;99.90;;;;;;5073916;28;20552;-75
2021/12/09 09:08:05;;;;;;;;;;;18.60;99.90;;;;;;5074456;28;20390;-75
2021/12/09 09:10:33;;;;;;;;;;;18.60;99.90;;;;;;5074473;28;19912;-76
2021/12/09 09:13:00;;;;;;;;;;;18.60;99.90;;;;;;5074454;28;19913;-76
2021/12/09 09:15:28;;;;;;;;;;;18.70;99.90;;;;;;5073285;28;19928;-77
2021/12/09 09:17:55;;;;;;;;;;;18.70;99.90;;;;;;5073228;28;19985;-76
2021/12/09 09:20:23;;;;;;;;;;;18.70;99.90;;;;;;5073332;28;20371;-77
2021/12/09 09:22:51;;;;;;;;;;;18.70;99.90;;;;;;5074346;28;20007;-77
2021/12/09 09:25:20;;;;;;;;;;;18.70;99.90;;;;;;5073929;28;19947;-78
2021/12/09 09:27:48;;;;;;;;;;;18.70;99.90;;;;;;5073935;28;19916;-78
2021/12/09 09:30:18;;;;;;;;;;;18.70;99.90;;;;;;5073510;28;19912;-78
2021/12/09 09:32:48;;;;;;;;;;;18.70;99.90;;;;;;5072713;28;20286;-77
2021/12/09 09:35:15;;;;;;;;;;;18.70;99.90;;;;;;5073417;28;19995;-76
2021/12/09 09:37:42;;;;;;;;;;;18.70;99.90;;;;;;5073631;28;19920;-77
2021/12/09 09:40:11;;;;;;;;;;;18.60;99.90;;;;;;5072723;28;19920;-77
2021/12/09 09:45:14;;;;;;;;;;;18.50;99.90;;;;;;5071098;28;19932;-76
2021/12/09 09:47:41;;;;;;;;;;;18.60;99.90;;;;;;5063703;28;19919;-77
2021/12/09 09:50:08;;;;;;;;;;;18.50;99.90;;;;;;5071913;28;20801;-78
2021/12/09 09:52:35;;;;;;;;;;;18.50;99.90;;;;;;5070901;28;19919;-75
2021/12/09 09:55:05;;;;;;;;;;;18.50;99.90;;;;;;5071654;28;20347;-76
2021/12/09 09:57:32;;;;;;;;;;;18.50;99.90;;;;;;5073163;28;19920;-76
2021/12/09 09:59:58;;;;;;;;;;;18.50;99.90;;;;;;5072511;28;20007;-77
2021/12/09 10:02:25;;;;;;;;;;;18.50;99.90;;;;;;5073159;28;19916;-77
2021/12/09 10:05:01;;;;;;;;;;;18.50;99.90;;;;;;5072718;28;19995;-77
2021/12/09 10:07:28;;;;;;;;;;;18.50;99.90;;;;;;5071762;28;19944;-77
2021/12/09 10:09:54;;;;;;;;;;;18.60;99.90;;;;;;5072419;28;19943;-76
2021/12/09 10:12:21;;;;;;;;;;;18.60;99.90;;;;;;5072248;28;20248;-75
2021/12/09 10:14:50;;;;;;;;;;;18.60;99.90;;;;;;5072763;28;19965;-75
2021/12/09 10:17:17;;;;;;;;;;;18.60;99.90;;;;;;5072292;28;19924;-75
2021/12/09 10:19:47;;;;;;;;;;;18.60;99.90;;;;;;5072743;28;19975;-75
2021/12/09 10:22:17;;;;;;;;;;;18.60;99.90;;;;;;5072804;28;19920;-76
2021/12/09 10:24:44;;;;;;;;;;;18.60;99.90;;;;;;5073204;28;20307;-76
2021/12/09 10:27:28;;;;;;;;;;;18.60;99.90;;;;;;5072141;28;20054;-77
2021/12/09 10:30:16;;;;;;;;;;;18.60;99.90;;;;;;5104972;28;20317;-78
2021/12/09 10:32:45;;;;;;;;;;;18.50;99.90;;;;;;5072598;28;19939;-78
2021/12/09 10:35:17;;;;;;;;;;;18.50;99.90;;;;;;5072114;28;20340;-77
2021/12/09 10:37:44;;;;;;;;;;;18.50;99.90;;;;;;5061993;28;19923;-76
2021/12/09 10:40:13;;;;;;;;;;;18.50;99.90;;;;;;5071769;28;20003;-76
2021/12/09 10:42:46;;;;;;;;;;;18.60;99.90;;;;;;5072163;28;20355;-78
2021/12/09 10:45:13;;;;;;;;;;;18.60;99.90;;;;;;5071469;28;20430;-77
2021/12/09 10:48:20;;;;;;;;;;;18.60;99.90;;;;;;5072556;28;19916;-78
2021/12/09 10:55:50;;;;;;;;;;;18.60;99.90;;;;;;5076159;28;19916;-77
2021/12/09 10:58:18;;;;;;;;;;;18.60;99.90;;;;;;5078599;28;19921;-78
2021/12/09 11:00:44;;;;;;;;;;;18.60;99.90;;;;;;5072731;28;19958;-78
2021/12/09 11:03:11;;;;;;;;;;;18.60;99.90;;;;;;5075894;28;20399;-78
2021/12/09 11:05:40;;;;;;;;;;;18.60;99.90;;;;;;5071741;28;20007;-79
2021/12/09 11:08:23;;;;;;;;;;;18.60;99.90;;;;;;5071780;28;20365;-79
2021/12/09 11:10:56;;;;;;;;;;;18.60;99.90;;;;;;5065231;28;19974;-79
2021/12/09 11:13:23;;;;;;;;;;;18.60;99.90;;;;;;5050747;28;20155;-78
2021/12/09 11:15:53;;;;;;;;;;;18.60;99.90;;;;;;5053827;28;20356;-79
2021/12/09 11:18:29;;;;;;;;;;;18.60;99.90;;;;;;5053691;28;20029;-78
2021/12/09 11:20:56;;;;;;;;;;;18.50;99.90;;;;;;5055192;28;20279;-78
2021/12/09 11:23:28;;;;;;;;;;;18.40;99.90;;;;;;5053005;28;19913;-80
2021/12/09 11:25:58;;;;;;;;;;;18.40;99.90;;;;;;5054277;28;19916;-78
2021/12/09 11:28:26;;;;;;;;;;;18.40;99.90;;;;;;5053955;28;19913;-78
2021/12/09 11:31:05;;;;;;;;;;;18.30;99.90;;;;;;5054168;28;19916;-78
2021/12/09 11:33:35;;;;;;;;;;;18.30;99.90;;;;;;5053791;28;19920;-78
2021/12/09 11:36:02;;;;;;;;;;;18.30;99.90;;;;;;5054534;28;19920;-78
2021/12/09 11:38:55;;;;;;;;;;;18.30;99.90;;;;;;5053698;28;19972;-78
2021/12/09 11:41:33;;;;;;;;;;;18.30;99.90;;;;;;5045043;28;20375;-77
2021/12/09 11:43:59;;;;;;;;;;;18.30;99.90;;;;;;5062767;28;19936;-78
2021/12/09 11:46:26;;;;;;;;;;;18.20;99.90;;;;;;5058655;28;20259;-78
2021/12/09 11:48:53;;;;;;;;;;;18.20;99.90;;;;;;5066615;28;19927;-77
2021/12/09 11:51:21;;;;;;;;;;;18.20;99.90;;;;;;5069368;28;20061;-79
2021/12/09 11:53:54;;;;;;;;;;;18.20;99.90;;;;;;5056780;28;20435;-78
2021/12/09 11:56:29;;;;;;;;;;;18.10;99.90;;;;;;5043872;28;19921;-79
2021/12/09 12:13:31;;;;;;;;;;;18.40;99.90;;;;;;5079180;28;19973;-76
2021/12/09 12:16:00;;;;;;;;;;;18.30;99.90;;;;;;5069167;28;20394;-77
2021/12/09 12:18:41;;;;;;;;;;;18.20;99.90;;;;;;5071059;28;19925;-76
2021/12/09 12:21:36;;;;;;;;;;;18.20;99.90;;;;;;5071209;28;19959;-77
2021/12/09 12:24:38;;;;;;;;;;;18.20;99.90;;;;;;5070542;28;19920;-76
2021/12/09 12:27:24;;;;;;;;;;;18.20;99.90;;;;;;5070566;28;19916;-76
2021/12/09 12:33:03;;;;;;;;;;;18.10;99.90;;;;;;5070777;28;19916;-77
2021/12/09 12:38:09;;;;;;;;;;;18.20;99.90;;;;;;5070630;28;19931;-78
2021/12/09 12:40:38;;;;;;;;;;;18.20;99.90;;;;;;5070500;28;19920;-77
2021/12/09 12:43:10;;;;;;;;;;;18.10;99.90;;;;;;5060855;28;19916;-77
2021/12/09 12:46:05;;;;;;;;;;;18.20;99.90;;;;;;5070392;28;20530;-77
2021/12/09 12:51:21;;;;;;;;;;;18.10;99.90;;;;;;5070533;28;19952;-77
2021/12/09 12:53:49;;;;;;;;;;;18.10;99.90;;;;;;5070242;28;20248;-77
2021/12/09 12:56:20;;;;;;;;;;;18.00;99.90;;;;;;5070797;28;19912;-78
2021/12/09 12:59:13;;;;;;;;;;;18.00;99.90;;;;;;5070164;28;19934;-78
2021/12/09 13:01:44;;;;;;;;;;;18.00;99.90;;;;;;5070674;28;20722;-77
2021/12/09 13:07:19;;;;;;;;;;;18.00;99.90;;;;;;5073495;28;19912;-76
2021/12/09 13:09:54;;;;;;;;;;;17.90;99.90;;;;;;5066539;28;19999;-76
2021/12/09 13:12:44;;;;;;;;;;;17.90;99.90;;;;;;5057540;28;19921;-76
2021/12/09 13:15:22;;;;;;;;;;;18.00;99.90;;;;;;5029338;28;19919;-75
2021/12/09 13:18:00;;;;;;;;;;;18.00;99.90;;;;;;5057054;28;19927;-77
2021/12/09 13:20:32;;;;;;;;;;;18.00;99.90;;;;;;5056324;28;19917;-77
2021/12/09 13:23:27;;;;;;;;;;;18.00;99.90;;;;;;5057195;28;19996;-76
2021/12/09 13:26:30;;;;;;;;;;;18.00;99.90;;;;;;5057168;28;19917;-77
2021/12/09 13:29:08;;;;;;;;;;;18.00;99.90;;;;;;5056258;28;19921;-78
2021/12/09 13:31:54;;;;;;;;;;;18.00;99.90;;;;;;5055904;28;19924;-79
2021/12/09 13:34:43;;;;;;;;;;;18.00;99.90;;;;;;5057812;28;19948;-77
2021/12/09 13:40:16;;;;;;;;;;;18.10;99.90;;;;;;5056420;28;20326;-77
2021/12/09 13:48:14;;;;;;;;;;;18.00;99.90;;;;;;5064688;28;19935;-75
2021/12/09 13:56:07;;;;;;;;;;;18.00;99.90;;;;;;5056609;28;19966;-75
2021/12/09 13:58:34;;;;;;;;;;;18.10;99.90;;;;;;5055099;28;20011;-75
2021/12/09 14:01:01;;;;;;;;;;;18.00;99.90;;;;;;5056630;28;19999;-74
2021/12/09 14:03:28;;;;;;;;;;;18.10;99.90;;;;;;5055194;28;20028;-74
2021/12/09 14:06:01;;;;;;;;;;;18.10;99.90;;;;;;5056344;28;19967;-74
2021/12/09 14:08:37;;;;;;;;;;;18.00;99.90;;;;;;5062008;28;20011;-74
2021/12/09 14:11:21;;;;;;;;;;;18.00;99.90;;;;;;5072429;28;19913;-74
2021/12/09 14:13:58;;;;;;;;;;;18.10;99.90;;;;;;5072122;28;20007;-73
2021/12/09 14:21:37;;;;;;;;;;;17.10;99.90;;;;;;5072857;28;19969;-74
2021/12/09 14:24:12;;;;;;;;;;;16.60;99.90;;;;;;5072072;28;19913;-74
2021/12/09 14:26:41;;;;;;;;;;;16.30;99.90;;;;;;5063622;28;20371;-75
2021/12/09 14:29:09;;;;;;;;;;;16.10;99.90;;;;;;5071993;28;19992;-74
2021/12/09 14:31:46;;;;;;;;;;;16.00;99.90;;;;;;5072727;28;19917;-75
2021/12/09 14:34:13;;;;;;;;;;;15.90;99.90;;;;;;5071973;28;20465;-74
2021/12/09 14:36:41;;;;;;;;;;;15.60;99.90;;;;;;5063073;28;20003;-74
2021/12/09 14:39:09;;;;;;;;;;;15.40;99.90;;;;;;5071789;28;20379;-74
2021/12/09 14:41:36;;;;;;;;;;;15.30;99.90;;;;;;5072165;28;19921;-74
2021/12/09 14:44:08;;;;;;;;;;;15.30;99.90;;;;;;5072038;28;19912;-74
2021/12/09 14:46:39;;;;;;;;;;;15.30;99.90;;;;;;5072402;28;20378;-74
2021/12/09 14:49:22;;;;;;;;;;;15.30;99.90;;;;;;5071910;28;19921;-74
2021/12/09 14:51:51;;;;;;;;;;;15.20;99.90;;;;;;5070482;28;19924;-74
2021/12/09 14:54:18;;;;;;;;;;;15.10;99.90;;;;;;5071496;28;19920;-74
2021/12/09 14:56:56;;;;;;;;;;;15.00;99.90;;;;;;5062907;28;19956;-74
2021/12/09 14:59:22;;;;;;;;;;;15.00;99.90;;;;;;5071570;28;19934;-74
2021/12/09 15:02:08;;;;;;;;;;;15.10;99.90;;;;;;5071908;28;19912;-74
2021/12/09 15:04:40;;;;;;;;;;;15.10;99.90;;;;;;5071545;28;20369;-73
2021/12/09 15:07:11;;;;;;;;;;;15.20;99.90;;;;;;5072100;28;19970;-74
2021/12/09 15:09:38;;;;;;;;;;;15.10;99.90;;;;;;5071618;28;19925;-74
2021/12/09 15:12:08;;;;;;;;;;;15.10;99.90;;;;;;5071554;28;19913;-74
2021/12/09 15:14:37;;;;;;;;;;;15.20;99.90;;;;;;5063428;28;19966;-74
2021/12/09 15:17:04;;;;;;;;;;;15.10;99.90;;;;;;5071529;28;19912;-73
2021/12/09 15:19:30;;;;;;;;;;;15.10;99.90;;;;;;5071224;28;19982;-74
2021/12/09 15:22:06;;;;;;;;;;;15.00;99.90;;;;;;5071412;28;19932;-74
2021/12/09 15:24:33;;;;;;;;;;;15.10;99.90;;;;;;5071053;28;20020;-74
2021/12/09 15:27:00;;;;;;;;;;;15.10;99.90;;;;;;5071426;28;19912;-74
2021/12/09 15:29:26;;;;;;;;;;;15.00;99.90;;;;;;5070992;28;19913;-73